Time;durP1;ratioP1;P1;durP2;ratioP2;P2;SDS_P1;SDS_P2;PMS_P1;PMS_P2;Temp;Humidity;BMP_temperature;BMP_pressure;BME280_temperature;BME280_humidity;BME280_pressure;Samples;Min_cycle;Max_cycle;Signal;HPM_P1;HPM_P2
2021/11/02 00:00:37;;;;;;;8.63;4.32;;;11.10;99.90;;;;;;5097160;28;20032;-63
2021/11/02 00:03:04;;;;;;;7.75;4.80;;;11.10;99.90;;;;;;5097458;28;20034;-62
2021/11/02 00:05:31;;;;;;;6.05;3.90;;;11.00;99.90;;;;;;5097351;28;20043;-64
2021/11/02 00:07:57;;;;;;;9.95;4.28;;;10.90;99.90;;;;;;5096226;28;20036;-64
2021/11/02 00:10:23;;;;;;;7.50;4.18;;;10.80;99.90;;;;;;5095374;28;20032;-63
2021/11/02 00:12:49;;;;;;;9.70;5.10;;;10.80;99.90;;;;;;5095704;28;20169;-63
2021/11/02 00:15:21;;;;;;;7.78;4.57;;;10.70;99.90;;;;;;5096213;28;20650;-63
2021/11/02 00:17:49;;;;;;;6.97;4.97;;;10.70;99.90;;;;;;5073075;28;20075;-63
2021/11/02 00:20:15;;;;;;;13.70;4.40;;;10.80;99.90;;;;;;5075099;28;20025;-63
2021/11/02 00:22:42;;;;;;;6.80;4.20;;;10.70;99.90;;;;;;5094654;28;20039;-64
2021/11/02 00:25:08;;;;;;;7.03;4.05;;;10.70;99.90;;;;;;5096200;28;20032;-64
2021/11/02 00:27:39;;;;;;;8.48;4.63;;;10.60;99.90;;;;;;5095977;28;20032;-64
2021/11/02 00:30:12;;;;;;;7.00;4.40;;;10.70;99.90;;;;;;5094907;28;20032;-64
2021/11/02 00:32:39;;;;;;;6.15;4.20;;;10.70;99.90;;;;;;5094786;28;20116;-63
2021/11/02 00:35:06;;;;;;;16.92;9.02;;;10.70;99.90;;;;;;5095692;28;20162;-64
2021/11/02 00:37:32;;;;;;;10.18;5.47;;;10.70;99.90;;;;;;5096242;28;20487;-62
2021/11/02 00:39:57;;;;;;;7.38;4.40;;;10.80;99.90;;;;;;5096628;28;20047;-61
2021/11/02 00:45:32;;;;;;;8.00;4.63;;;10.80;99.90;;;;;;5051893;28;20528;-64
2021/11/02 00:48:04;;;;;;;5.57;4.15;;;10.80;99.90;;;;;;5051189;28;20216;-64
2021/11/02 00:50:32;;;;;;;9.05;4.20;;;10.90;99.90;;;;;;5062470;28;20041;-63
2021/11/02 00:52:58;;;;;;;7.63;4.07;;;10.90;99.90;;;;;;5073217;28;20496;-62
2021/11/02 00:55:23;;;;;;;11.43;4.28;;;10.80;99.90;;;;;;5081752;28;20039;-64
2021/11/02 00:57:49;;;;;;;8.68;4.22;;;10.80;99.90;;;;;;5081152;28;20040;-63
2021/11/02 01:00:16;;;;;;;8.00;4.45;;;10.80;99.90;;;;;;5072922;28;20032;-63
2021/11/02 01:02:41;;;;;;;8.32;4.43;;;10.80;99.90;;;;;;5073256;28;20044;-64
2021/11/02 01:05:09;;;;;;;5.93;4.07;;;10.70;99.90;;;;;;5072761;28;20089;-63
2021/11/02 01:07:35;;;;;;;6.28;4.05;;;10.70;99.90;;;;;;5073136;28;20119;-63
2021/11/02 01:10:01;;;;;;;6.07;4.00;;;10.70;99.90;;;;;;5072791;28;20468;-63
2021/11/02 01:12:27;;;;;;;4.95;3.88;;;10.70;99.90;;;;;;5072917;28;20075;-62
2021/11/02 01:14:53;;;;;;;8.30;4.05;;;10.80;99.90;;;;;;5072698;28;20060;-64
2021/11/02 01:17:18;;;;;;;8.32;4.00;;;10.70;99.90;;;;;;5072021;28;20036;-63
2021/11/02 01:19:44;;;;;;;5.68;3.85;;;10.70;99.90;;;;;;5072922;28;20032;-63
2021/11/02 01:22:09;;;;;;;6.13;4.10;;;10.60;99.90;;;;;;5087236;28;20043;-64
2021/11/02 01:24:36;;;;;;;8.63;3.88;;;10.60;99.90;;;;;;5093090;28;20036;-63
2021/11/02 01:27:02;;;;;;;9.00;3.67;;;10.60;99.90;;;;;;5093060;28;20028;-63
2021/11/02 01:29:28;;;;;;;8.63;4.93;;;10.60;99.90;;;;;;5092993;28;20047;-64
2021/11/02 01:31:53;;;;;;;9.75;4.80;;;10.50;99.90;;;;;;5092892;28;20044;-64
2021/11/02 01:34:19;;;;;;;6.93;4.10;;;10.40;99.90;;;;;;5092730;28;20483;-64
2021/11/02 01:36:45;;;;;;;6.53;3.80;;;10.40;99.90;;;;;;5091785;28;20040;-62
2021/11/02 01:39:11;;;;;;;6.65;4.07;;;10.50;99.90;;;;;;5072488;28;20050;-63
2021/11/02 01:41:37;;;;;;;7.53;3.65;;;10.50;99.90;;;;;;5072423;28;20032;-64
2021/11/02 01:44:04;;;;;;;6.00;3.72;;;10.50;99.90;;;;;;5072940;28;20037;-64
2021/11/02 01:46:37;;;;;;;9.15;3.90;;;10.50;99.90;;;;;;5072296;28;20025;-63
2021/11/02 01:49:06;;;;;;;7.22;3.60;;;10.50;99.90;;;;;;5071775;28;20519;-61
2021/11/02 01:51:32;;;;;;;5.75;3.63;;;10.50;99.90;;;;;;5072258;28;20059;-64
2021/11/02 01:53:59;;;;;;;6.28;3.63;;;10.50;99.90;;;;;;5088988;28;20558;-64
2021/11/02 01:56:25;;;;;;;5.05;3.55;;;10.50;99.90;;;;;;5075371;28;20032;-63
2021/11/02 01:58:53;;;;;;;5.53;3.47;;;10.50;99.90;;;;;;5072079;28;20032;-61
2021/11/02 02:01:56;;;;;;;5.68;3.70;;;10.50;99.90;;;;;;5071695;28;20369;-64
2021/11/02 02:04:48;;;;;;;6.13;3.55;;;10.50;99.90;;;;;;5071998;28;20028;-63
2021/11/02 02:07:32;;;;;;;5.88;3.80;;;10.50;99.90;;;;;;5070900;28;20029;-64
2021/11/02 02:10:09;;;;;;;8.17;4.13;;;10.40;99.90;;;;;;5078678;28;20396;-64
2021/11/02 02:12:51;;;;;;;5.60;4.03;;;10.50;99.90;;;;;;5071916;28;20040;-64
2021/11/02 02:15:26;;;;;;;4.85;3.35;;;10.50;99.90;;;;;;5070775;28;20115;-63
2021/11/02 02:18:07;;;;;;;8.30;4.20;;;10.40;99.90;;;;;;5071983;28;20028;-63
2021/11/02 02:21:01;;;;;;;5.85;4.88;;;10.30;99.90;;;;;;5071466;28;20040;-63
2021/11/02 02:23:29;;;;;;;9.52;4.03;;;10.30;99.90;;;;;;5090594;28;20024;-64
2021/11/02 02:26:00;;;;;;;6.13;4.25;;;10.30;99.90;;;;;;5092133;28;20032;-63
2021/11/02 02:28:33;;;;;;;7.05;4.53;;;10.20;99.90;;;;;;5091277;28;20036;-63
2021/11/02 02:31:05;;;;;;;7.07;4.10;;;10.20;99.90;;;;;;5091506;28;20032;-64
2021/11/02 02:33:36;;;;;;;6.35;4.22;;;10.20;99.90;;;;;;5091791;28;20024;-61
2021/11/02 02:36:02;;;;;;;5.50;3.90;;;10.10;99.90;;;;;;5087638;28;20395;-65
2021/11/02 02:38:31;;;;;;;5.30;3.80;;;10.00;99.90;;;;;;5071657;28;20386;-62
2021/11/02 02:40:58;;;;;;;7.90;4.53;;;10.00;99.90;;;;;;5071273;28;20036;-63
2021/11/02 02:43:25;;;;;;;9.30;4.10;;;10.00;99.90;;;;;;5071717;28;20101;-63
2021/11/02 02:45:53;;;;;;;6.82;4.25;;;10.00;99.90;;;;;;5071872;28;20060;-64
2021/11/02 02:48:21;;;;;;;7.35;4.53;;;10.10;99.90;;;;;;5071513;28;20070;-64
2021/11/02 02:50:47;;;;;;;6.70;4.05;;;10.00;99.90;;;;;;5071157;28;20032;-63
2021/11/02 02:53:14;;;;;;;6.35;4.15;;;10.10;99.90;;;;;;5071213;28;20056;-64
2021/11/02 02:55:43;;;;;;;7.35;4.00;;;10.00;99.90;;;;;;5082288;28;20483;-64
2021/11/02 02:58:10;;;;;;;9.65;4.32;;;10.10;99.90;;;;;;5091805;28;20029;-64
2021/11/02 03:00:37;;;;;;;6.03;3.78;;;10.10;99.90;;;;;;5091339;28;20028;-64
2021/11/02 03:03:03;;;;;;;5.25;4.20;;;10.10;99.90;;;;;;5091645;28;20073;-63
2021/11/02 03:05:29;;;;;;;6.35;3.90;;;10.10;99.90;;;;;;5091528;28;20459;-63
2021/11/02 03:07:56;;;;;;;9.75;4.15;;;10.10;99.90;;;;;;5081165;28;20037;-63
2021/11/02 03:10:23;;;;;;;7.97;4.60;;;10.10;99.90;;;;;;5071329;28;20499;-63
2021/11/02 03:12:51;;;;;;;7.15;4.53;;;10.10;99.90;;;;;;5070896;28;20098;-64
2021/11/02 03:18:13;;;;;;;9.32;4.97;;;10.10;99.90;;;;;;5072713;28;20039;-63
2021/11/02 03:48:26;;;;;;;7.88;4.72;;;10.10;99.90;;;;;;5075332;28;19904;-64
2021/11/02 03:58:54;;;;;;;5.78;4.78;;;9.80;99.90;;;;;;5096147;28;20024;-62
2021/11/02 04:26:59;;;;;;;10.43;4.97;;;10.00;99.90;;;;;;5053194;28;20485;-63
2021/11/02 04:45:56;;;;;;;6.85;5.35;;;9.80;99.90;;;;;;5094728;28;20075;-64
2021/11/02 05:51:58;;;;;;;12.35;5.85;;;9.60;99.90;;;;;;5073700;28;20131;-64
2021/11/02 06:02:48;;;;;;;10.05;6.97;;;9.50;99.90;;;;;;5093184;28;20094;-64
2021/11/02 06:05:42;;;;;;;9.48;8.05;;;9.60;99.90;;;;;;5093393;28;20036;-65
2021/11/02 06:08:38;;;;;;;9.18;6.22;;;9.60;99.90;;;;;;5093390;28;20036;-65
2021/11/02 06:30:19;;;;;;;11.93;7.93;;;9.40;99.90;;;;;;5093956;28;20047;-65
2021/11/02 06:33:03;;;;;;;10.55;8.25;;;9.40;99.90;;;;;;5092092;28;20039;-64
2021/11/02 06:35:34;;;;;;;16.52;9.00;;;9.40;99.90;;;;;;5093317;28;20121;-65
2021/11/02 06:46:38;;;;;;;11.13;8.48;;;9.20;99.90;;;;;;5093826;28;20060;-67
2021/11/02 06:49:35;;;;;;;14.68;7.95;;;9.20;99.90;;;;;;5093132;28;20514;-65
2021/11/02 07:17:34;;;;;;;13.65;7.93;;;9.00;99.90;;;;;;5087917;28;20036;-66
2021/11/02 07:25:47;;;;;;;7.75;6.78;;;8.80;99.90;;;;;;5097180;28;20077;-64
2021/11/02 08:46:44;;;;;;;9.18;7.72;;;10.40;99.90;;;;;;5094399;28;20472;-67
2021/11/02 08:49:10;;;;;;;13.45;8.70;;;10.20;99.90;;;;;;5094114;28;20036;-64
2021/11/02 08:51:35;;;;;;;10.32;7.95;;;10.30;99.90;;;;;;5095199;28;21117;-65
2021/11/02 08:54:01;;;;;;;10.10;8.15;;;10.40;99.90;;;;;;5094557;28;20036;-64
2021/11/02 08:56:27;;;;;;;14.20;7.68;;;10.50;99.90;;;;;;5094886;28;20058;-63
2021/11/02 08:58:55;;;;;;;9.65;7.55;;;10.50;99.90;;;;;;5093609;28;20036;-65
2021/11/02 09:01:25;;;;;;;10.63;7.55;;;10.60;99.90;;;;;;5094985;28;20483;-65
2021/11/02 09:03:59;;;;;;;14.80;7.63;;;10.70;99.90;;;;;;5094408;28;20040;-65
2021/11/02 09:06:27;;;;;;;8.75;6.82;;;10.60;99.90;;;;;;5092559;28;20040;-65
2021/11/02 09:08:55;;;;;;;11.95;7.65;;;10.70;99.90;;;;;;5093131;28;20119;-66
2021/11/02 09:11:23;;;;;;;12.13;7.45;;;10.60;99.90;;;;;;5092750;28;20112;-65
2021/11/02 09:13:51;;;;;;;7.82;6.60;;;10.80;99.90;;;;;;5094311;28;20032;-64
2021/11/02 09:16:18;;;;;;;11.30;7.00;;;11.10;99.90;;;;;;5094063;28;20062;-65
2021/11/02 09:18:45;;;;;;;10.90;7.38;;;11.20;99.90;;;;;;5080631;28;20028;-65
2021/11/02 09:21:11;;;;;;;10.30;7.53;;;11.20;99.90;;;;;;5078737;28;20024;-65
2021/11/02 09:23:41;;;;;;;15.80;8.35;;;11.10;99.90;;;;;;5094283;28;20499;-65
2021/11/02 09:26:07;;;;;;;11.50;7.28;;;11.20;99.90;;;;;;5094262;28;20036;-65
2021/11/02 09:28:33;;;;;;;10.85;6.95;;;11.40;99.90;;;;;;5093980;28;20119;-64
2021/11/02 09:30:59;;;;;;;10.40;6.90;;;11.40;99.90;;;;;;5093113;28;20020;-65
2021/11/02 09:33:24;;;;;;;10.63;5.90;;;11.50;99.90;;;;;;5093331;28;20357;-65
2021/11/02 09:36:01;;;;;;;9.95;4.88;;;11.60;99.60;;;;;;5094241;28;20096;-64
2021/11/02 09:38:41;;;;;;;9.75;3.67;;;11.70;98.50;;;;;;5094578;28;20028;-65
2021/11/02 09:41:47;;;;;;;9.43;4.10;;;11.60;98.20;;;;;;5093890;28;20051;-65
2021/11/02 09:44:29;;;;;;;6.15;4.28;;;11.50;98.20;;;;;;5094989;28;20031;-65
2021/11/02 09:47:17;;;;;;;7.53;3.45;;;11.50;98.40;;;;;;5093897;28;20115;-64
2021/11/02 09:50:16;;;;;;;9.00;3.88;;;11.50;98.40;;;;;;5091994;28;20411;-65
2021/11/02 09:52:42;;;;;;;5.22;3.40;;;11.50;97.70;;;;;;5092181;28;20090;-65
2021/11/02 09:55:59;;;;;;;4.32;3.40;;;11.40;97.70;;;;;;5085947;28;20539;-64
2021/11/02 09:58:46;;;;;;;4.90;3.70;;;11.20;98.30;;;;;;5072676;28;20036;-64
2021/11/02 10:01:17;;;;;;;5.28;3.55;;;11.10;98.40;;;;;;5073364;28;20027;-65
2021/11/02 10:04:20;;;;;;;6.32;3.80;;;11.10;98.60;;;;;;5073212;28;20071;-67
2021/11/02 10:06:59;;;;;;;5.57;3.95;;;11.10;98.50;;;;;;5072754;28;20483;-66
2021/11/02 10:09:37;;;;;;;6.05;3.40;;;11.30;98.20;;;;;;5072719;28;20639;-66
2021/11/02 10:12:11;;;;;;;6.35;4.03;;;11.40;98.20;;;;;;5071712;28;20123;-65
2021/11/02 10:14:40;;;;;;;7.18;4.07;;;11.50;98.20;;;;;;5073464;28;20125;-65
2021/11/02 10:18:06;;;;;;;5.95;4.03;;;11.80;97.90;;;;;;5090187;27;20481;-64
2021/11/02 10:20:54;;;;;;;7.53;4.93;;;11.90;97.60;;;;;;5089776;28;20491;-65
2021/11/02 10:23:32;;;;;;;5.97;3.33;;;11.70;97.90;;;;;;5070525;28;20526;-64
2021/11/02 10:26:25;;;;;;;8.73;3.22;;;12.00;97.50;;;;;;5070232;28;20068;-64
2021/11/02 10:29:07;;;;;;;6.20;2.60;;;12.10;96.60;;;;;;5070118;28;20040;-65
2021/11/02 10:32:13;;;;;;;4.90;2.90;;;12.10;95.60;;;;;;5070355;28;20033;-65
2021/11/02 10:34:41;;;;;;;4.05;2.80;;;12.00;95.90;;;;;;5070672;28;20029;-66
2021/11/02 10:37:10;;;;;;;5.57;3.10;;;12.10;95.60;;;;;;5069908;28;20524;-65
2021/11/02 10:40:01;;;;;;;6.22;3.33;;;12.10;95.70;;;;;;5070274;28;20033;-65
2021/11/02 10:42:50;;;;;;;5.68;3.00;;;12.20;95.70;;;;;;5069312;28;20511;-65
2021/11/02 10:45:25;;;;;;;5.95;2.78;;;12.00;95.50;;;;;;5070007;28;20025;-63
2021/11/02 10:48:03;;;;;;;7.93;2.80;;;12.30;94.90;;;;;;5069852;28;20082;-66
2021/11/02 10:50:31;;;;;;;9.00;3.10;;;12.40;94.90;;;;;;5069537;28;20091;-65
2021/11/02 10:52:58;;;;;;;7.53;3.22;;;12.40;95.00;;;;;;5069859;28;20115;-64
2021/11/02 10:55:44;;;;;;;6.03;2.80;;;12.30;95.20;;;;;;5069648;28;20028;-64
2021/11/02 10:58:36;;;;;;;6.07;2.50;;;12.20;95.20;;;;;;5068881;28;20078;-65
2021/11/02 11:01:04;;;;;;;4.43;3.20;;;12.30;94.80;;;;;;5068211;28;20033;-65
2021/11/02 11:03:31;;;;;;;8.32;3.45;;;12.10;95.40;;;;;;5069454;28;20082;-66
2021/11/02 11:06:02;;;;;;;5.40;2.60;;;12.40;95.30;;;;;;5069802;28;20065;-65
2021/11/02 11:08:32;;;;;;;5.78;2.92;;;12.40;95.00;;;;;;5067975;28;20090;-67
2021/11/02 11:11:03;;;;;;;5.90;3.10;;;12.30;94.70;;;;;;5067637;28;20047;-65
2021/11/02 11:13:30;;;;;;;4.35;2.95;;;12.50;94.50;;;;;;5069294;28;20075;-64
2021/11/02 11:16:16;;;;;;;6.82;2.92;;;12.40;94.30;;;;;;5068864;28;20044;-65
2021/11/02 11:19:10;;;;;;;4.50;2.40;;;12.40;94.40;;;;;;5082084;28;20115;-66
2021/11/02 11:21:37;;;;;;;3.72;2.67;;;12.00;94.70;;;;;;5078593;28;20123;-65
2021/11/02 11:24:38;;;;;;;5.00;2.85;;;11.80;95.10;;;;;;5069433;28;20024;-65
2021/11/02 11:27:07;;;;;;;3.50;2.53;;;11.90;95.10;;;;;;5053358;28;20036;-67
2021/11/02 11:29:41;;;;;;;4.85;2.92;;;12.20;94.50;;;;;;5071458;28;20032;-65
2021/11/02 11:32:07;;;;;;;5.13;2.80;;;12.10;94.70;;;;;;5054319;28;20067;-68
2021/11/02 11:34:41;;;;;;;5.85;2.72;;;12.00;95.00;;;;;;5054705;28;20050;-65
2021/11/02 11:37:10;;;;;;;3.08;2.60;;;12.00;94.90;;;;;;5056158;28;20028;-63
2021/11/02 11:39:36;;;;;;;3.33;2.60;;;11.90;95.00;;;;;;5056071;28;20040;-64
2021/11/02 11:42:02;;;;;;;5.78;2.88;;;12.10;95.10;;;;;;5056404;28;20555;-64
2021/11/02 11:44:29;;;;;;;4.97;2.72;;;12.10;95.00;;;;;;5054662;28;20057;-63
2021/11/02 11:47:08;;;;;;;4.55;2.90;;;12.10;95.20;;;;;;5055587;28;20064;-65
2021/11/02 11:49:37;;;;;;;4.80;2.80;;;12.40;94.80;;;;;;5056229;28;20040;-64
2021/11/02 11:52:05;;;;;;;5.38;3.00;;;12.40;94.80;;;;;;5056306;28;20029;-64
2021/11/02 11:54:46;;;;;;;3.65;2.30;;;12.50;94.60;;;;;;5070568;28;20033;-64
2021/11/02 11:57:26;;;;;;;4.72;2.53;;;12.70;94.10;;;;;;5054875;28;20035;-65
2021/11/02 12:00:10;;;;;;;3.72;2.40;;;12.90;93.30;;;;;;5055136;28;20021;-65
2021/11/02 12:03:08;;;;;;;3.75;2.35;;;12.80;93.50;;;;;;5055414;28;20037;-65
2021/11/02 12:05:43;;;;;;;6.55;2.53;;;12.90;93.30;;;;;;5055987;28;20037;-65
2021/11/02 12:08:15;;;;;;;5.10;2.80;;;12.80;93.60;;;;;;5055481;28;20384;-66
2021/11/02 12:10:43;;;;;;;5.60;3.05;;;12.80;94.10;;;;;;5054792;28;20025;-65
2021/11/02 12:13:10;;;;;;;4.32;2.63;;;12.90;93.80;;;;;;5055074;28;20029;-66
2021/11/02 12:15:58;;;;;;;3.63;2.70;;;12.80;94.10;;;;;;5055419;28;20037;-66
2021/11/02 12:18:31;;;;;;;5.78;3.20;;;12.80;94.00;;;;;;5064034;28;20033;-67
2021/11/02 12:20:57;;;;;;;4.85;3.08;;;12.60;94.00;;;;;;5069591;28;20040;-66
2021/11/02 12:23:39;;;;;;;5.60;3.13;;;12.40;94.30;;;;;;5053872;28;20484;-65
2021/11/02 12:26:06;;;;;;;3.70;2.80;;;12.20;94.90;;;;;;5055438;28;20040;-66
2021/11/02 12:28:41;;;;;;;4.15;2.83;;;12.20;94.70;;;;;;5055682;28;20033;-65
2021/11/02 12:31:12;;;;;;;5.70;3.33;;;12.20;94.80;;;;;;5055473;28;20036;-64
2021/11/02 12:33:47;;;;;;;4.55;2.83;;;12.20;94.80;;;;;;5055446;28;20041;-66
2021/11/02 12:36:20;;;;;;;8.30;3.40;;;12.10;95.10;;;;;;5054445;28;20112;-66
2021/11/02 12:38:45;;;;;;;7.50;2.97;;;12.00;95.00;;;;;;5054143;28;20048;-66
2021/11/02 12:41:20;;;;;;;5.43;2.80;;;12.10;94.90;;;;;;5053105;28;20037;-64
2021/11/02 12:44:00;;;;;;;5.50;2.88;;;12.10;94.90;;;;;;5054473;28;20033;-66
2021/11/02 12:46:27;;;;;;;3.78;2.70;;;12.10;94.70;;;;;;5053885;28;20082;-65
2021/11/02 12:48:53;;;;;;;7.47;3.28;;;12.10;94.70;;;;;;5055695;28;20029;-65
2021/11/02 12:51:21;;;;;;;4.80;2.70;;;12.10;94.80;;;;;;5057803;28;20132;-65
2021/11/02 12:53:52;;;;;;;15.57;3.90;;;12.20;94.60;;;;;;5055614;28;20048;-65
2021/11/02 12:56:20;;;;;;;4.53;2.80;;;12.30;94.60;;;;;;5054432;28;20116;-66
2021/11/02 12:58:50;;;;;;;3.25;2.38;;;12.20;94.50;;;;;;5054999;28;20041;-64
2021/11/02 13:01:35;;;;;;;3.20;2.30;;;12.20;94.30;;;;;;5054262;28;20164;-64
2021/11/02 13:04:11;;;;;;;;;;;12.10;94.40;;;;;;5054433;28;20051;-65
2021/11/02 13:06:48;;;;;;;2.63;2.33;;;12.30;94.00;;;;;;5054375;28;20289;-65
2021/11/02 13:09:19;;;;;;;3.88;2.65;;;12.60;93.50;;;;;;5054320;28;20392;-64
2021/11/02 13:11:45;;;;;;;2.95;2.10;;;13.00;92.90;;;;;;5054114;28;20400;-65
2021/11/02 13:14:14;;;;;;;5.85;2.30;;;13.50;92.00;;;;;;5054382;28;20590;-65
2021/11/02 13:16:59;;;;;;;8.88;3.22;;;13.70;91.10;;;;;;5054062;28;20130;-65
2021/11/02 13:19:56;;;;;;;3.03;2.10;;;13.70;90.20;;;;;;5071880;28;20108;-65
2021/11/02 13:22:25;;;;;;;4.55;1.88;;;13.20;90.40;;;;;;5045391;28;20072;-64
2021/11/02 13:25:01;;;;;;;3.65;2.22;;;13.20;90.60;;;;;;5052596;28;20029;-65
2021/11/02 13:27:46;;;;;;;2.47;2.00;;;13.10;91.00;;;;;;5053964;28;20033;-65
2021/11/02 13:30:31;;;;;;;4.72;2.28;;;13.10;91.10;;;;;;5053654;28;20033;-65
2021/11/02 13:33:06;;;;;;;3.65;2.45;;;12.90;91.40;;;;;;5053464;28;20396;-64
2021/11/02 13:36:00;;;;;;;3.95;2.28;;;12.80;91.80;;;;;;5053019;28;20069;-65
2021/11/02 13:38:33;;;;;;;4.47;3.15;;;12.60;92.50;;;;;;5053680;28;20108;-66
2021/11/02 13:41:15;;;;;;;2.50;2.30;;;12.40;92.90;;;;;;5053691;28;20021;-65
2021/11/02 13:43:43;;;;;;;3.10;2.33;;;12.40;93.10;;;;;;5053218;28;20021;-64
2021/11/02 13:46:10;;;;;;;2.90;2.53;;;12.50;93.00;;;;;;5053605;28;20492;-64
2021/11/02 13:48:37;;;;;;;4.10;2.10;;;12.40;93.00;;;;;;5052685;28;20047;-65
2021/11/02 13:51:04;;;;;;;3.72;2.33;;;12.10;93.40;;;;;;5053045;28;20044;-64
2021/11/02 13:53:34;;;;;;;3.65;2.65;;;12.20;93.50;;;;;;5053231;28;20045;-66
2021/11/02 13:56:06;;;;;;;3.38;2.53;;;12.00;93.60;;;;;;5053036;28;20044;-65
2021/11/02 13:58:32;;;;;;;3.75;2.35;;;12.10;93.60;;;;;;5053357;28;20029;-64
2021/11/02 14:00:58;;;;;;;4.30;2.65;;;12.40;93.40;;;;;;5050921;28;20036;-67
2021/11/02 14:03:41;;;;;;;4.88;2.92;;;12.30;93.50;;;;;;5051783;28;20037;-65
2021/11/02 14:06:10;;;;;;;4.63;2.72;;;12.30;93.50;;;;;;5053899;28;20032;-64
2021/11/02 14:08:38;;;;;;;4.07;2.42;;;12.20;93.60;;;;;;5053082;28;20040;-67
2021/11/02 14:11:19;;;;;;;5.22;3.00;;;12.20;93.80;;;;;;5052246;28;20033;-66
2021/11/02 14:13:47;;;;;;;6.55;3.05;;;12.00;93.90;;;;;;5053062;28;20086;-65
2021/11/02 14:16:14;;;;;;;5.38;2.70;;;12.10;93.80;;;;;;5034410;28;20447;-64
2021/11/02 14:18:40;;;;;;;3.95;2.60;;;12.00;94.20;;;;;;5048577;28;20102;-65
2021/11/02 14:21:10;;;;;;;4.32;2.88;;;12.00;94.20;;;;;;5051240;28;20033;-64
2021/11/02 14:23:41;;;;;;;4.53;2.72;;;12.00;94.40;;;;;;5053026;28;20519;-64
2021/11/02 14:26:19;;;;;;;4.68;2.80;;;12.10;94.10;;;;;;5053072;28;20029;-65
2021/11/02 14:28:55;;;;;;;12.15;2.92;;;12.40;93.80;;;;;;5052185;28;20094;-65
2021/11/02 14:31:40;;;;;;;4.88;2.90;;;12.60;93.40;;;;;;5066852;28;20227;-65
2021/11/02 14:34:07;;;;;;;7.05;2.72;;;12.80;93.10;;;;;;5051915;28;20415;-65
2021/11/02 14:36:42;;;;;;;3.95;2.90;;;12.80;93.00;;;;;;5052305;28;20040;-65
2021/11/02 14:39:13;;;;;;;3.15;2.67;;;12.50;93.60;;;;;;5052128;28;20472;-66
2021/11/02 14:41:47;;;;;;;5.28;2.80;;;12.50;93.50;;;;;;5051542;28;20551;-65
2021/11/02 14:44:15;;;;;;;3.33;2.97;;;12.50;93.50;;;;;;5052203;28;20037;-65
2021/11/02 14:46:46;;;;;;;4.07;2.80;;;12.50;93.30;;;;;;5052533;28;20506;-66
2021/11/02 14:49:32;;;;;;;4.22;2.75;;;12.50;93.20;;;;;;5052851;28;20045;-67
2021/11/02 14:51:58;;;;;;;3.20;2.80;;;12.40;92.80;;;;;;5048871;28;20405;-66
2021/11/02 14:54:30;;;;;;;5.03;3.20;;;12.30;93.00;;;;;;5052232;28;20029;-63
2021/11/02 14:56:57;;;;;;;3.47;2.88;;;12.20;93.00;;;;;;5051707;28;20515;-67
2021/11/02 14:59:23;;;;;;;4.30;2.83;;;12.30;93.00;;;;;;5052213;28;20396;-65
2021/11/02 15:01:57;;;;;;;5.20;3.15;;;12.30;93.00;;;;;;5050818;28;20036;-64
2021/11/02 15:04:24;;;;;;;;;;;12.30;93.20;;;;;;5056277;28;20071;-64
2021/11/02 15:06:55;;;;;;;5.40;3.03;;;12.20;93.20;;;;;;5055661;28;19912;-66
2021/11/02 15:09:23;;;;;;;7.90;3.17;;;12.30;93.30;;;;;;5055782;28;20468;-65
2021/11/02 15:11:51;;;;;;;6.18;3.05;;;12.40;93.20;;;;;;5055641;28;20036;-67
2021/11/02 15:14:22;;;;;;;4.78;3.00;;;12.30;93.10;;;;;;5054458;28;20040;-65
2021/11/02 15:16:51;;;;;;;7.50;2.95;;;12.30;93.20;;;;;;5055002;28;20040;-66
2021/11/02 15:19:18;;;;;;;3.97;3.00;;;12.40;93.00;;;;;;5070461;28;20565;-65
2021/11/02 15:21:50;;;;;;;3.92;2.83;;;12.40;93.20;;;;;;5064487;28;20512;-66
2021/11/02 15:24:26;;;;;;;3.45;2.80;;;12.40;93.10;;;;;;5054117;28;20154;-65
2021/11/02 15:27:03;;;;;;;4.38;3.30;;;12.30;93.30;;;;;;5055925;28;20492;-65
2021/11/02 15:29:34;;;;;;;5.05;2.83;;;12.30;93.40;;;;;;5055604;28;20025;-63
2021/11/02 15:32:06;;;;;;;5.68;3.20;;;12.20;93.60;;;;;;5056178;28;20079;-66
2021/11/02 15:34:51;;;;;;;5.47;3.20;;;12.20;93.70;;;;;;5056585;28;20049;-66
2021/11/02 15:37:27;;;;;;;6.43;3.78;;;12.10;94.00;;;;;;5053741;28;20385;-65
2021/11/02 15:39:59;;;;;;;5.63;3.50;;;12.10;94.10;;;;;;5055032;28;20033;-68
2021/11/02 15:42:26;;;;;;;7.90;3.42;;;12.10;94.10;;;;;;5055235;28;20029;-66
2021/11/02 15:45:01;;;;;;;5.30;3.50;;;12.20;94.10;;;;;;5055318;28;20128;-67
2021/11/02 15:47:28;;;;;;;6.32;3.67;;;12.10;94.20;;;;;;5055613;28;20025;-65
2021/11/02 15:50:09;;;;;;;6.78;3.63;;;12.20;94.30;;;;;;5055199;28;20044;-66
2021/11/02 15:52:36;;;;;;;5.55;4.00;;;12.20;94.20;;;;;;5056084;28;20103;-65
2021/11/02 15:55:11;;;;;;;5.47;3.90;;;12.30;94.20;;;;;;5054955;28;20492;-66
2021/11/02 15:57:39;;;;;;;4.47;4.03;;;12.20;94.30;;;;;;5054435;28;20033;-65
2021/11/02 16:00:07;;;;;;;6.85;4.43;;;12.30;94.30;;;;;;5054941;28;20517;-64
2021/11/02 16:02:34;;;;;;;7.97;3.95;;;12.20;94.30;;;;;;5055084;28;20075;-65
2021/11/02 16:05:08;;;;;;;7.40;4.10;;;12.20;94.40;;;;;;5055143;28;20461;-66
2021/11/02 16:07:34;;;;;;;5.97;4.30;;;12.20;94.50;;;;;;5055665;28;20064;-66
2021/11/02 16:09:59;;;;;;;9.45;5.63;;;12.10;94.40;;;;;;5054164;28;20690;-65
2021/11/02 16:12:38;;;;;;;5.50;4.05;;;12.10;94.50;;;;;;5055556;28;20052;-68
2021/11/02 16:15:06;;;;;;;8.45;4.47;;;12.10;94.50;;;;;;5054965;28;20427;-64
2021/11/02 16:17:48;;;;;;;6.53;4.53;;;12.20;94.60;;;;;;5057076;28;20033;-63
2021/11/02 16:20:23;;;;;;;11.55;6.10;;;12.10;94.60;;;;;;5074771;28;20051;-65
2021/11/02 16:22:54;;;;;;;11.25;6.47;;;12.10;94.70;;;;;;5054716;28;20025;-64
2021/11/02 16:25:20;;;;;;;6.93;4.93;;;12.10;94.70;;;;;;5053050;28;20074;-64
2021/11/02 16:28:14;;;;;;;5.78;5.03;;;12.10;94.70;;;;;;5035893;28;20037;-65
2021/11/02 16:30:48;;;;;;;6.20;5.32;;;12.20;94.50;;;;;;5052867;28;20052;-65
2021/11/02 16:33:15;;;;;;;6.63;4.90;;;12.10;94.60;;;;;;5068974;28;20074;-66
2021/11/02 16:35:45;;;;;;;6.22;4.90;;;12.10;94.70;;;;;;5053900;28;20036;-65
2021/11/02 16:38:27;;;;;;;6.72;4.50;;;12.00;94.80;;;;;;5054058;28;20029;-65
2021/11/02 16:40:53;;;;;;;7.60;4.80;;;12.00;94.80;;;;;;5053151;28;20032;-64
2021/11/02 16:43:47;;;;;;;6.70;5.38;;;12.00;94.80;;;;;;5053680;28;20555;-69
2021/11/02 16:46:29;;;;;;;9.07;6.00;;;12.00;94.80;;;;;;5054113;28;20083;-65
2021/11/02 16:49:10;;;;;;;8.88;5.97;;;11.90;94.90;;;;;;5053384;28;20033;-65
2021/11/02 16:51:47;;;;;;;7.70;5.75;;;11.90;94.90;;;;;;5053530;28;20033;-64
2021/11/02 16:54:15;;;;;;;6.90;4.95;;;11.90;95.10;;;;;;5054377;28;20492;-68
2021/11/02 16:57:05;;;;;;;9.93;5.43;;;11.80;95.00;;;;;;5053566;28;20064;-66
2021/11/02 16:59:42;;;;;;;10.55;8.05;;;11.90;95.20;;;;;;5054545;28;20500;-65
2021/11/02 17:02:19;;;;;;;8.75;6.88;;;11.90;95.20;;;;;;5054392;28;20067;-66
2021/11/02 17:05:03;;;;;;;10.60;6.20;;;11.90;95.20;;;;;;5054065;28;20092;-65
2021/11/02 17:07:51;;;;;;;9.65;6.30;;;11.90;95.20;;;;;;5053393;28;20040;-63
2021/11/02 17:10:22;;;;;;;7.90;6.53;;;11.90;95.30;;;;;;5054853;28;20041;-66
2021/11/02 17:12:57;;;;;;;7.95;6.03;;;11.90;95.50;;;;;;5054031;28;20043;-66
2021/11/02 17:15:25;;;;;;;8.77;6.13;;;11.90;95.70;;;;;;5053577;28;20106;-65
2021/11/02 17:17:52;;;;;;;9.23;6.38;;;11.90;96.00;;;;;;5061532;28;20115;-66
2021/11/02 17:20:18;;;;;;;9.63;5.82;;;11.80;96.00;;;;;;5074070;28;20017;-66
2021/11/02 17:22:49;;;;;;;10.68;6.43;;;11.80;96.10;;;;;;5053208;28;20035;-64
2021/11/02 17:25:16;;;;;;;6.90;5.47;;;11.80;96.10;;;;;;5052212;28;20044;-66
2021/11/02 17:27:43;;;;;;;8.13;5.03;;;11.70;96.10;;;;;;5051833;28;20063;-66
2021/11/02 17:30:18;;;;;;;6.13;5.13;;;11.70;96.00;;;;;;5052796;28;20037;-66
2021/11/02 17:32:45;;;;;;;5.75;4.93;;;11.70;96.00;;;;;;5053999;28;20036;-66
2021/11/02 17:35:13;;;;;;;9.50;5.97;;;11.70;96.00;;;;;;5054180;28;20060;-65
2021/11/02 17:37:40;;;;;;;7.93;5.80;;;11.70;96.00;;;;;;5052950;28;20029;-66
2021/11/02 17:40:06;;;;;;;7.75;5.85;;;11.70;96.00;;;;;;5052266;28;20037;-65
2021/11/02 17:42:31;;;;;;;10.52;7.30;;;11.60;96.00;;;;;;5067970;28;20033;-66
2021/11/02 17:44:57;;;;;;;10.32;7.38;;;11.60;96.10;;;;;;5051756;28;20048;-65
2021/11/02 17:47:23;;;;;;;13.18;9.80;;;11.60;96.20;;;;;;5051193;28;20059;-66
2021/11/02 17:49:50;;;;;;;12.48;10.82;;;11.60;96.20;;;;;;5052119;28;20048;-67
2021/11/02 17:52:16;;;;;;;16.95;14.15;;;11.60;97.10;;;;;;5052951;28;20482;-67
2021/11/02 17:54:42;;;;;;;14.98;10.45;;;11.60;97.70;;;;;;5052917;28;20107;-66
2021/11/02 17:57:08;;;;;;;11.02;8.30;;;11.60;98.00;;;;;;5053688;28;20036;-68
2021/11/02 17:59:36;;;;;;;9.52;8.07;;;11.50;97.80;;;;;;5053315;28;20048;-65
2021/11/02 18:02:04;;;;;;;11.27;7.60;;;11.50;98.00;;;;;;5053442;28;20040;-68
2021/11/02 18:04:32;;;;;;;10.35;7.57;;;11.50;97.60;;;;;;5051457;28;20493;-65
2021/11/02 18:06:59;;;;;;;10.45;7.88;;;11.50;97.30;;;;;;5052258;28;20540;-66